Time;durP1;ratioP1;P1;durP2;ratioP2;P2;SDS_P1;SDS_P2;PMS_P1;PMS_P2;Temp;Humidity;BMP_temperature;BMP_pressure;BME280_temperature;BME280_humidity;BME280_pressure;Samples;Min_cycle;Max_cycle;Signal;HPM_P1;HPM_P2
2022/01/09 00:00:35;;;;;;;;;;;;;;;18.82;61.06;100293.31;5054685;28;1346;-34
2022/01/09 00:03:03;;;;;;;;;;;;;;;18.83;61.63;100292.34;5041089;28;1721;-34
2022/01/09 00:05:30;;;;;;;;;;;;;;;18.85;61.30;100287.69;5043735;28;1906;-34
2022/01/09 00:08:03;;;;;;;;;;;;;;;18.87;61.70;100288.38;5041421;28;1759;-34
2022/01/09 00:10:33;;;;;;;;;;;;;;;18.91;61.51;100288.94;5052443;28;1910;-34
2022/01/09 00:13:03;;;;;;;;;;;;;;;18.85;61.34;100282.31;5049368;28;1060;-34
2022/01/09 00:15:33;;;;;;;;;;;;;;;18.82;60.84;100274.56;5048107;28;1957;-34
2022/01/09 00:18:07;;;;;;;;;;;;;;;18.78;61.39;100292.75;5053628;28;2011;-34
2022/01/09 00:20:33;;;;;;;;;;;;;;;18.82;61.43;100298.66;5046555;28;1907;-34
2022/01/09 00:23:06;;;;;;;;;;;;;;;18.81;60.95;100303.19;5054023;28;1824;-35
2022/01/09 00:25:36;;;;;;;;;;;;;;;18.79;61.11;100288.22;5048445;28;1819;-35
2022/01/09 00:30:57;;;;;;;;;;;;;;;18.83;60.99;100289.66;5049063;28;1891;-35
2022/01/09 00:33:24;;;;;;;;;;;;;;;18.83;60.76;100279.78;5051356;28;1703;-34
2022/01/09 00:35:53;;;;;;;;;;;;;;;18.81;60.96;100286.28;5053852;28;1858;-34
2022/01/09 00:38:25;;;;;;;;;;;;;;;18.78;60.82;100283.84;5051639;28;1660;-34
2022/01/09 00:40:52;;;;;;;;;;;;;;;18.76;61.19;100270.63;5049671;28;1768;-34
2022/01/09 00:43:25;;;;;;;;;;;;;;;18.86;60.48;100281.31;5054764;28;1445;-34
2022/01/09 00:45:52;;;;;;;;;;;;;;;18.83;60.12;100284.31;5045607;28;1698;-35
2022/01/09 00:48:19;;;;;;;;;;;;;;;18.83;60.87;100268.22;5051062;28;1004;-34
2022/01/09 00:50:49;;;;;;;;;;;;;;;18.77;61.28;100280.34;5052554;28;1906;-34
2022/01/09 00:53:18;;;;;;;;;;;;;;;18.78;60.42;100265.09;5044192;28;1463;-34
2022/01/09 00:55:51;;;;;;;;;;;;;;;18.75;60.46;100250.16;5036729;28;1700;-34
2022/01/09 00:58:27;;;;;;;;;;;;;;;18.74;60.94;100251.19;5054116;28;1900;-34
2022/01/09 01:00:55;;;;;;;;;;;;;;;18.78;60.29;100257.06;5040124;28;1604;-34
2022/01/09 01:03:21;;;;;;;;;;;;;;;18.75;60.64;100247.50;5042034;28;1325;-34
2022/01/09 01:05:51;;;;;;;;;;;;;;;18.79;60.55;100243.56;5041697;28;1782;-34
2022/01/09 01:08:17;;;;;;;;;;;;;;;18.78;61.17;100232.94;5053312;28;1766;-34
2022/01/09 01:10:46;;;;;;;;;;;;;;;18.72;61.23;100239.78;5053291;28;2012;-34
2022/01/09 01:15:55;;;;;;;;;;;;;;;18.80;60.82;100245.25;5053570;28;2147;-35
2022/01/09 01:18:23;;;;;;;;;;;;;;;18.76;61.15;100251.00;5042438;28;1100;-34
2022/01/09 01:20:49;;;;;;;;;;;;;;;18.78;60.49;100241.00;5051640;28;2004;-35
2022/01/09 01:23:16;;;;;;;;;;;;;;;18.81;60.47;100227.34;5041833;28;1626;-34
2022/01/09 01:25:44;;;;;;;;;;;;;;;18.77;60.54;100233.97;5048853;28;1864;-34
2022/01/09 01:28:14;;;;;;;;;;;;;;;18.77;60.98;100229.44;5035622;28;1421;-34
2022/01/09 01:30:47;;;;;;;;;;;;;;;18.80;60.42;100223.84;5047404;28;1898;-34
2022/01/09 01:33:22;;;;;;;;;;;;;;;18.84;60.42;100227.03;5034318;28;1608;-34
2022/01/09 01:35:49;;;;;;;;;;;;;;;18.81;60.61;100219.31;5036607;28;1755;-34
2022/01/09 01:38:17;;;;;;;;;;;;;;;18.79;60.70;100210.56;5043471;28;1804;-34
2022/01/09 01:40:44;;;;;;;;;;;;;;;18.86;59.70;100208.97;5048806;28;1609;-34
2022/01/09 01:43:12;;;;;;;;;;;;;;;18.84;59.83;100195.75;5040111;28;1598;-35
2022/01/09 01:45:41;;;;;;;;;;;;;;;18.78;60.49;100190.09;5037884;28;994;-34
2022/01/09 01:48:11;;;;;;;;;;;;;;;18.76;60.62;100182.22;5040932;28;1823;-34
2022/01/09 01:50:38;;;;;;;;;;;;;;;18.79;60.26;100176.59;5048191;28;1914;-34
2022/01/09 01:53:06;;;;;;;;;;;;;;;18.83;59.99;100195.91;5052873;28;1837;-34
2022/01/09 01:55:37;;;;;;;;;;;;;;;18.78;60.81;100174.03;5047388;28;1716;-34
2022/01/09 01:58:07;;;;;;;;;;;;;;;18.81;60.82;100168.41;5049067;28;1622;-36
2022/01/09 02:00:34;;;;;;;;;;;;;;;18.80;60.11;100164.91;5042320;28;1730;-34
2022/01/09 02:03:01;;;;;;;;;;;;;;;18.86;59.78;100171.47;5039553;28;1983;-34
2022/01/09 02:05:32;;;;;;;;;;;;;;;18.78;60.49;100147.25;5051811;28;1563;-34
2022/01/09 02:08:14;;;;;;;;;;;;;;;18.82;60.37;100145.97;5038629;28;1830;-34
2022/01/09 02:10:42;;;;;;;;;;;;;;;18.75;59.88;100147.56;5047220;28;1983;-34
2022/01/09 02:13:11;;;;;;;;;;;;;;;18.72;60.73;100134.44;5049342;28;998;-34
2022/01/09 02:15:49;;;;;;;;;;;;;;;18.79;60.19;100135.53;5046383;28;1634;-34
2022/01/09 02:18:18;;;;;;;;;;;;;;;18.81;60.46;100125.56;5041048;28;2100;-34
2022/01/09 02:20:51;;;;;;;;;;;;;;;18.79;60.37;100117.66;5036849;28;2037;-34
2022/01/09 02:23:20;;;;;;;;;;;;;;;18.75;60.26;100118.09;5041528;28;1769;-34
2022/01/09 02:26:10;;;;;;;;;;;;;;;18.80;60.68;100107.78;5047531;28;1732;-34
2022/01/09 02:28:37;;;;;;;;;;;;;;;18.73;60.13;100107.53;5034132;28;1636;-35
2022/01/09 02:31:04;;;;;;;;;;;;;;;18.77;60.60;100105.38;5046863;28;1969;-34
2022/01/09 02:33:35;;;;;;;;;;;;;;;18.69;60.51;100101.63;5053101;28;1926;-35
2022/01/09 02:36:10;;;;;;;;;;;;;;;18.77;60.19;100113.44;5049026;28;1969;-34
2022/01/09 02:38:36;;;;;;;;;;;;;;;18.70;60.45;100102.44;5037378;28;1947;-34
2022/01/09 02:41:03;;;;;;;;;;;;;;;18.73;60.34;100094.13;5057297;28;1686;-34
2022/01/09 02:43:32;;;;;;;;;;;;;;;18.72;60.88;100095.13;5049781;28;1582;-34
2022/01/09 02:46:07;;;;;;;;;;;;;;;18.80;60.18;100099.75;5052343;28;2053;-34
2022/01/09 02:48:37;;;;;;;;;;;;;;;18.80;60.21;100081.88;5056860;28;1946;-34
2022/01/09 02:51:15;;;;;;;;;;;;;;;18.81;59.87;100106.81;5044002;28;1902;-34
2022/01/09 02:53:49;;;;;;;;;;;;;;;18.75;60.65;100081.44;5053791;28;1531;-34
2022/01/09 02:56:19;;;;;;;;;;;;;;;18.83;59.47;100086.06;5048333;28;1423;-34
2022/01/09 02:58:46;;;;;;;;;;;;;;;18.78;59.84;100072.25;5050965;28;1929;-34
2022/01/09 03:01:16;;;;;;;;;;;;;;;18.80;60.22;100087.22;5152242;22;3749;-34
2022/01/09 03:03:45;;;;;;;;;;;;;;;18.80;59.85;100089.03;5054557;28;2620;-34
2022/01/09 03:06:15;;;;;;;;;;;;;;;18.81;59.85;100091.56;5056279;28;1630;-34
2022/01/09 03:08:42;;;;;;;;;;;;;;;18.82;59.77;100084.38;5050099;28;1607;-34
2022/01/09 03:11:09;;;;;;;;;;;;;;;18.78;60.27;100074.91;5054887;28;1898;-34
2022/01/09 03:13:38;;;;;;;;;;;;;;;18.83;59.85;100094.09;5055326;28;2011;-34
2022/01/09 03:16:14;;;;;;;;;;;;;;;18.73;60.53;100085.25;5056417;28;1933;-34
2022/01/09 03:18:43;;;;;;;;;;;;;;;18.77;60.47;100081.28;5038530;28;1908;-34
2022/01/09 03:21:10;;;;;;;;;;;;;;;18.72;61.45;100091.59;5056606;28;1436;-35
2022/01/09 03:23:40;;;;;;;;;;;;;;;18.66;61.87;100079.63;5056492;28;1157;-34
2022/01/09 03:26:09;;;;;;;;;;;;;;;18.64;62.17;100073.59;5056518;28;2009;-34
2022/01/09 03:31:17;;;;;;;;;;;;;;;18.61;62.71;100072.06;5053405;28;2104;-34
2022/01/09 03:33:44;;;;;;;;;;;;;;;18.62;61.58;100075.56;5055512;28;1957;-34
2022/01/09 03:36:14;;;;;;;;;;;;;;;18.62;62.21;100063.06;5053862;28;1534;-34
2022/01/09 03:38:44;;;;;;;;;;;;;;;18.60;61.99;100075.75;5043312;28;1647;-34
2022/01/09 03:41:14;;;;;;;;;;;;;;;18.60;62.45;100081.09;5055942;28;1627;-34
2022/01/09 03:43:44;;;;;;;;;;;;;;;18.56;62.84;100063.66;5055829;28;1575;-34
2022/01/09 03:46:14;;;;;;;;;;;;;;;18.55;62.83;100082.53;5055427;28;1502;-34
2022/01/09 03:48:40;;;;;;;;;;;;;;;18.55;63.22;100055.78;5056608;28;1080;-34
2022/01/09 03:51:16;;;;;;;;;;;;;;;18.55;63.73;100061.97;5055384;28;2087;-34
2022/01/09 03:53:48;;;;;;;;;;;;;;;18.55;63.31;100067.31;5043684;28;1399;-34
2022/01/09 03:56:17;;;;;;;;;;;;;;;18.54;63.61;100080.84;5055753;28;1973;-34
2022/01/09 03:58:44;;;;;;;;;;;;;;;18.54;63.32;100073.66;5055270;28;1744;-34
2022/01/09 04:01:14;;;;;;;;;;;;;;;18.54;62.78;100070.13;5053339;28;1863;-34
2022/01/09 04:03:43;;;;;;;;;;;;;;;18.52;63.75;100072.94;5036102;28;1807;-34
2022/01/09 04:06:12;;;;;;;;;;;;;;;18.52;63.58;100067.59;5027241;28;1800;-34
2022/01/09 04:08:42;;;;;;;;;;;;;;;18.53;63.73;100085.38;5027181;28;1750;-34
2022/01/09 04:11:17;;;;;;;;;;;;;;;18.54;62.71;100078.16;5035498;28;1971;-34
2022/01/09 04:13:47;;;;;;;;;;;;;;;18.60;62.96;100061.50;5032165;28;1547;-34
2022/01/09 04:16:13;;;;;;;;;;;;;;;18.58;63.57;100072.38;5031751;28;1393;-34
2022/01/09 04:18:41;;;;;;;;;;;;;;;18.59;63.78;100070.53;5035660;28;1099;-34
2022/01/09 04:21:08;;;;;;;;;;;;;;;18.57;63.82;100070.69;5034255;28;1808;-34
2022/01/09 04:23:35;;;;;;;;;;;;;;;18.57;63.70;100081.38;5035131;28;1579;-34
2022/01/09 04:26:02;;;;;;;;;;;;;;;18.57;64.12;100069.84;5035352;28;1707;-34
2022/01/09 04:28:34;;;;;;;;;;;;;;;18.57;63.47;100081.38;5032701;28;1444;-34
2022/01/09 04:31:08;;;;;;;;;;;;;;;18.58;63.80;100088.44;5034725;28;1902;-34
2022/01/09 04:33:39;;;;;;;;;;;;;;;18.56;63.77;100074.38;5031266;28;1627;-34
2022/01/09 04:36:09;;;;;;;;;;;;;;;18.56;64.72;100079.72;5035280;28;1752;-34
2022/01/09 04:38:38;;;;;;;;;;;;;;;18.57;64.63;100085.91;5034936;28;1522;-34
2022/01/09 04:41:07;;;;;;;;;;;;;;;18.55;64.55;100086.06;5034768;28;2042;-34
2022/01/09 04:43:48;;;;;;;;;;;;;;;18.53;63.79;100088.03;5034974;28;1772;-34
2022/01/09 04:46:21;;;;;;;;;;;;;;;18.54;64.25;100087.03;5031831;28;1552;-34
2022/01/09 04:48:53;;;;;;;;;;;;;;;18.55;64.75;100099.44;5016112;28;1678;-34
2022/01/09 04:51:20;;;;;;;;;;;;;;;18.54;64.94;100100.41;5022195;28;1981;-34
2022/01/09 04:53:55;;;;;;;;;;;;;;;18.53;64.13;100105.94;5034761;28;1710;-34
2022/01/09 04:56:22;;;;;;;;;;;;;;;18.49;64.71;100098.19;5027054;28;1891;-34
2022/01/09 04:58:55;;;;;;;;;;;;;;;18.49;64.47;100105.41;5034152;28;1475;-34
2022/01/09 05:01:22;;;;;;;;;;;;;;;18.47;63.87;100096.66;5034983;28;1751;-34
2022/01/09 05:03:49;;;;;;;;;;;;;;;18.49;64.63;100106.22;5054531;28;1089;-35
2022/01/09 05:06:16;;;;;;;;;;;;;;;18.46;64.90;100094.97;5054099;28;1516;-34
2022/01/09 05:08:45;;;;;;;;;;;;;;;18.47;65.01;100094.00;5054369;28;1488;-34
2022/01/09 05:11:14;;;;;;;;;;;;;;;18.47;64.81;100102.03;5054140;28;1906;-34
2022/01/09 05:13:43;;;;;;;;;;;;;;;18.48;64.86;100111.72;5050556;28;1708;-34
2022/01/09 05:16:19;;;;;;;;;;;;;;;18.47;64.52;100107.38;5053881;28;1665;-34
2022/01/09 05:18:52;;;;;;;;;;;;;;;18.48;64.77;100109.03;5052936;28;1431;-34
2022/01/09 05:21:22;;;;;;;;;;;;;;;18.49;65.06;100100.03;5053661;28;1571;-34
2022/01/09 05:23:49;;;;;;;;;;;;;;;18.47;65.03;100104.69;5054081;28;1938;-34
2022/01/09 05:26:20;;;;;;;;;;;;;;;18.48;65.61;100095.66;5053868;28;1776;-34
2022/01/09 05:28:46;;;;;;;;;;;;;;;18.47;64.67;100110.06;5053994;28;1640;-34
2022/01/09 05:31:17;;;;;;;;;;;;;;;18.47;65.13;100107.38;5053731;28;1969;-34
2022/01/09 05:33:45;;;;;;;;;;;;;;;18.46;64.83;100103.00;5041337;28;1555;-34
2022/01/09 05:36:11;;;;;;;;;;;;;;;18.45;64.74;100085.25;5042620;28;1800;-34
2022/01/09 05:38:40;;;;;;;;;;;;;;;18.46;64.15;100084.25;5053617;28;1874;-34
2022/01/09 05:41:07;;;;;;;;;;;;;;;18.45;64.25;100077.22;5053875;28;1683;-34
2022/01/09 05:43:36;;;;;;;;;;;;;;;18.45;64.23;100079.91;5053077;28;1690;-34
2022/01/09 05:46:03;;;;;;;;;;;;;;;18.44;64.84;100071.03;5053330;28;1443;-34
2022/01/09 05:48:33;;;;;;;;;;;;;;;18.40;65.25;100074.16;5053683;28;1452;-34
2022/01/09 05:51:03;;;;;;;;;;;;;;;18.40;64.78;100082.19;5052879;28;1658;-34
2022/01/09 05:53:31;;;;;;;;;;;;;;;18.43;64.96;100073.88;5052913;28;1898;-34
2022/01/09 05:58:39;;;;;;;;;;;;;;;18.43;64.81;100080.06;5051229;28;2407;-34
2022/01/09 06:01:09;;;;;;;;;;;;;;;18.42;64.67;100072.16;5048454;28;1533;-34
2022/01/09 06:03:39;;;;;;;;;;;;;;;18.47;64.87;100085.97;5054194;28;1061;-34
2022/01/09 06:06:06;;;;;;;;;;;;;;;18.44;65.06;100067.50;5052490;28;1685;-36
2022/01/09 06:08:32;;;;;;;;;;;;;;;18.51;64.71;100071.28;5001859;28;10995;-36
2022/01/09 06:10:59;;;;;;;;;;;;;;;18.51;65.21;100082.00;5051801;28;1828;-35
2022/01/09 06:13:25;;;;;;;;;;;;;;;18.51;64.71;100076.63;5049831;28;1910;-34
2022/01/09 06:15:55;;;;;;;;;;;;;;;18.54;65.09;100081.69;5052675;28;1545;-34
2022/01/09 06:18:24;;;;;;;;;;;;;;;18.51;64.97;100084.66;5052612;28;1053;-34
2022/01/09 06:20:56;;;;;;;;;;;;;;;18.50;65.37;100082.97;5051614;28;1523;-34
2022/01/09 06:23:30;;;;;;;;;;;;;;;18.56;65.12;100074.38;5047728;28;1493;-34
2022/01/09 06:25:58;;;;;;;;;;;;;;;18.57;65.78;100077.88;5037655;28;1765;-35
2022/01/09 06:28:26;;;;;;;;;;;;;;;18.58;65.27;100088.44;5053216;28;1802;-34
2022/01/09 06:30:54;;;;;;;;;;;;;;;18.57;65.94;100080.56;5049161;28;1656;-34
2022/01/09 06:33:23;;;;;;;;;;;;;;;18.58;66.07;100077.75;5050504;28;1906;-34
2022/01/09 06:35:50;;;;;;;;;;;;;;;18.53;65.64;100088.03;5052839;28;1597;-35
2022/01/09 06:38:29;;;;;;;;;;;;;;;18.68;65.61;100089.22;5052438;28;1775;-35
2022/01/09 06:40:55;;;;;;;;;;;;;;;18.81;64.79;100088.88;5037723;28;2522;-35
2022/01/09 06:43:32;;;;;;;;;;;;;;;18.86;65.02;100083.94;5047235;28;1449;-35
2022/01/09 06:46:01;;;;;;;;;;;;;;;18.83;64.85;100097.63;5044167;28;1521;-35
2022/01/09 06:48:29;;;;;;;;;;;;;;;18.91;65.54;100083.47;5043115;28;1250;-35
2022/01/09 06:50:58;;;;;;;;;;;;;;;18.99;64.62;100096.94;5043759;28;1670;-35
2022/01/09 06:53:30;;;;;;;;;;;;;;;18.84;65.18;100083.25;5043330;28;1981;-36
2022/01/09 06:55:59;;;;;;;;;;;;;;;18.74;65.29;100082.44;5047945;28;1566;-36
2022/01/09 06:58:28;;;;;;;;;;;;;;;18.73;65.57;100082.59;5043400;28;1595;-35
2022/01/09 07:03:36;;;;;;;;;;;;;;;18.73;65.46;100075.38;5047720;28;1582;-35
2022/01/09 07:06:02;;;;;;;;;;;;;;;18.67;65.32;100086.69;5045560;28;1558;-35
2022/01/09 07:08:37;;;;;;;;;;;;;;;18.55;65.33;100079.88;5045178;28;1474;-36
2022/01/09 07:11:08;;;;;;;;;;;;;;;18.49;65.58;100062.56;5046444;28;1566;-35
2022/01/09 07:13:36;;;;;;;;;;;;;;;18.51;65.21;100081.16;5036503;28;1909;-35
2022/01/09 07:16:05;;;;;;;;;;;;;;;18.48;65.58;100082.28;5038871;28;1385;-35
2022/01/09 07:18:41;;;;;;;;;;;;;;;18.41;66.32;100075.84;5042197;28;1316;-35
2022/01/09 07:23:50;;;;;;;;;;;;;;;18.30;66.14;100079.53;5042403;28;2480;-35
2022/01/09 07:26:16;;;;;;;;;;;;;;;18.21;67.04;100091.16;5043126;28;1811;-35
2022/01/09 07:28:45;;;;;;;;;;;;;;;18.21;66.37;100073.25;5047297;28;1366;-35
2022/01/09 07:31:14;;;;;;;;;;;;;;;18.08;66.20;100070.06;5045619;28;1601;-35
2022/01/09 07:33:43;;;;;;;;;;;;;;;18.03;66.64;100059.81;5044475;28;1887;-35
2022/01/09 07:36:14;;;;;;;;;;;;;;;18.05;66.49;100067.69;5047469;28;1746;-35
2022/01/09 07:38:42;;;;;;;;;;;;;;;18.04;66.15;100066.00;5046963;28;1575;-35
2022/01/09 07:41:15;;;;;;;;;;;;;;;18.12;66.89;100065.25;5048538;28;1356;-35
2022/01/09 07:43:42;;;;;;;;;;;;;;;18.04;67.40;100058.78;5047155;28;1410;-35
2022/01/09 07:46:12;;;;;;;;;;;;;;;18.03;66.44;100051.78;5045126;28;1481;-35
2022/01/09 07:48:48;;;;;;;;;;;;;;;17.97;67.19;100054.19;5045005;28;1297;-35
2022/01/09 07:51:17;;;;;;;;;;;;;;;17.91;67.07;100042.25;5030877;28;1690;-35
2022/01/09 07:53:47;;;;;;;;;;;;;;;17.92;67.22;100048.44;5046326;28;1980;-35
2022/01/09 07:56:16;;;;;;;;;;;;;;;17.89;67.96;100042.38;5050472;28;1558;-35
2022/01/09 07:58:42;;;;;;;;;;;;;;;17.92;67.90;100032.38;5046164;28;1647;-35
2022/01/09 08:01:11;;;;;;;;;;;;;;;17.85;67.65;100038.31;5051426;28;1458;-35
2022/01/09 08:03:37;;;;;;;;;;;;;;;17.73;67.61;100018.06;5038273;28;1946;-35
2022/01/09 08:06:04;;;;;;;;;;;;;;;17.73;66.66;100042.13;5034349;28;1658;-35
2022/01/09 08:08:40;;;;;;;;;;;;;;;17.74;67.26;100010.88;5039256;28;1402;-35
2022/01/09 08:11:09;;;;;;;;;;;;;;;17.69;67.32;100005.97;5035476;28;1624;-35
2022/01/09 08:13:41;;;;;;;;;;;;;;;17.63;67.57;100018.09;5033054;28;1975;-35
2022/01/09 08:16:09;;;;;;;;;;;;;;;17.60;67.44;100006.84;5035223;28;1459;-35
2022/01/09 08:18:38;;;;;;;;;;;;;;;17.64;67.15;100013.56;5034144;28;1143;-35
2022/01/09 08:21:05;;;;;;;;;;;;;;;17.57;66.88;99993.78;5036311;28;1658;-35
2022/01/09 08:23:31;;;;;;;;;;;;;;;17.55;66.54;100003.75;5037427;28;1456;-35
2022/01/09 08:26:01;;;;;;;;;;;;;;;17.65;66.52;100012.59;5049728;28;1652;-35
2022/01/09 08:28:31;;;;;;;;;;;;;;;17.45;62.67;100026.00;5040658;28;1522;-35
2022/01/09 08:31:06;;;;;;;;;;;;;;;17.59;64.68;100026.56;5036458;28;1540;-35
2022/01/09 08:33:41;;;;;;;;;;;;;;;17.45;67.04;100019.81;5052590;28;1913;-35
2022/01/09 08:36:08;;;;;;;;;;;;;;;17.38;66.73;100029.41;5049153;28;1592;-35
2022/01/09 08:38:35;;;;;;;;;;;;;;;17.37;67.26;100022.34;5030296;28;1785;-35
2022/01/09 08:41:04;;;;;;;;;;;;;;;17.45;66.95;100020.66;5041640;28;1819;-36
2022/01/09 08:43:36;;;;;;;;;;;;;;;17.63;66.56;100027.94;5047637;28;1612;-34
2022/01/09 08:46:04;;;;;;;;;;;;;;;17.85;66.49;100022.28;5039934;28;1798;-35
2022/01/09 08:48:34;;;;;;;;;;;;;;;18.02;66.37;100017.13;5040900;28;1072;-34
2022/01/09 08:51:08;;;;;;;;;;;;;;;18.16;66.03;100008.63;5034568;28;1829;-35
2022/01/09 08:53:36;;;;;;;;;;;;;;;18.27;65.62;100013.78;5034612;28;1934;-34
2022/01/09 08:56:04;;;;;;;;;;;;;;;18.38;65.03;100004.72;5046156;28;1411;-35
2022/01/09 08:58:51;;;;;;;;;;;;;;;18.45;64.75;100016.50;5039660;28;1863;-35
2022/01/09 09:01:19;;;;;;;;;;;;;;;18.58;64.53;100010.78;5044420;28;1598;-35
2022/01/09 09:03:49;;;;;;;;;;;;;;;18.63;63.87;100016.53;5054825;28;994;-35
2022/01/09 09:06:20;;;;;;;;;;;;;;;18.74;63.59;100022.66;5044565;28;1731;-35
2022/01/09 09:11:35;;;;;;;;;;;;;;;18.89;64.27;100031.88;5021955;28;1641;-35
2022/01/09 09:14:15;;;;;;;;;;;;;;;18.89;63.31;99994.38;5039684;28;1969;-34
2022/01/09 09:16:47;;;;;;;;;;;;;;;18.96;63.34;100014.22;5040064;28;1750;-35
2022/01/09 09:19:17;;;;;;;;;;;;;;;18.96;63.33;99998.13;5034873;28;1092;-35
2022/01/09 09:21:46;;;;;;;;;;;;;;;19.05;62.91;99999.88;5041244;28;1776;-34
2022/01/09 09:24:13;;;;;;;;;;;;;;;19.04;63.43;99986.66;5043445;28;1851;-34
2022/01/09 09:26:44;;;;;;;;;;;;;;;19.11;62.83;100006.44;5045808;28;2078;-35
2022/01/09 09:29:10;;;;;;;;;;;;;;;19.15;62.52;99991.75;5042354;28;1618;-34
2022/01/09 09:31:38;;;;;;;;;;;;;;;19.18;63.05;99987.91;5038095;28;1975;-35
2022/01/09 09:34:10;;;;;;;;;;;;;;;19.19;62.65;99969.00;5054132;28;1903;-34
2022/01/09 09:36:37;;;;;;;;;;;;;;;19.17;62.46;99976.34;5046728;28;1862;-35
2022/01/09 09:39:13;;;;;;;;;;;;;;;19.11;63.54;99963.56;5037134;28;1861;-35
2022/01/09 09:41:41;;;;;;;;;;;;;;;19.11;62.96;99950.19;5047943;28;1765;-35
2022/01/09 09:44:12;;;;;;;;;;;;;;;19.08;63.39;99966.59;5038438;28;1586;-34
2022/01/09 09:46:42;;;;;;;;;;;;;;;19.07;63.72;99965.72;5033473;28;1765;-34
2022/01/09 09:49:12;;;;;;;;;;;;;;;19.03;63.49;99956.31;5052846;28;1011;-34
2022/01/09 09:51:41;;;;;;;;;;;;;;;19.00;62.91;99951.28;5049373;28;1893;-34
2022/01/09 09:54:10;;;;;;;;;;;;;;;18.95;63.29;99961.59;5047744;28;1902;-35
2022/01/09 09:56:36;;;;;;;;;;;;;;;18.87;63.84;99958.88;5040666;28;1809;-35
2022/01/09 09:59:03;;;;;;;;;;;;;;;18.79;63.27;99945.38;5037947;28;1822;-34
2022/01/09 10:01:34;;;;;;;;;;;;;;;18.79;63.50;99951.59;5042368;28;1336;-35
2022/01/09 10:04:02;;;;;;;;;;;;;;;18.74;63.70;99953.00;5053497;28;1065;-36
2022/01/09 10:06:39;;;;;;;;;;;;;;;18.68;64.33;99952.66;5053077;28;1864;-35
2022/01/09 10:09:10;;;;;;;;;;;;;;;18.63;63.76;99957.59;5052552;28;1968;-34
2022/01/09 10:11:49;;;;;;;;;;;;;;;18.63;64.40;99954.94;5052713;28;1737;-34
2022/01/09 10:14:19;;;;;;;;;;;;;;;18.60;64.53;99962.41;5052547;28;1887;-34
2022/01/09 10:17:08;;;;;;;;;;;;;;;18.62;64.41;99944.38;5044373;28;1614;-35
2022/01/09 10:19:41;;;;;;;;;;;;;;;18.64;63.77;99935.19;5033240;28;1262;-34
2022/01/09 10:22:24;;;;;;;;;;;;;;;18.65;64.39;99928.00;5049821;28;1904;-34
2022/01/09 10:25:09;;;;;;;;;;;;;;;18.71;63.57;99937.28;5050161;28;2021;-35
2022/01/09 10:27:38;;;;;;;;;;;;;;;18.74;63.95;99936.94;5050849;28;1932;-35
2022/01/09 10:30:05;;;;;;;;;;;;;;;18.73;63.84;99928.06;5052936;28;1987;-35
2022/01/09 10:32:35;;;;;;;;;;;;;;;18.74;64.14;99920.88;5052594;28;1983;-34
2022/01/09 10:35:26;;;;;;;;;;;;;;;18.72;63.51;99922.88;5053224;28;1902;-35
2022/01/09 10:38:08;;;;;;;;;;;;;;;18.78;63.42;99933.81;5050606;28;1876;-35
2022/01/09 10:40:36;;;;;;;;;;;;;;;18.72;64.19;99925.53;5047190;28;1537;-35
2022/01/09 10:43:04;;;;;;;;;;;;;;;18.86;63.54;99935.72;5052473;28;1593;-35
2022/01/09 10:45:31;;;;;;;;;;;;;;;18.96;62.77;99925.78;5052588;28;2014;-34
2022/01/09 10:48:05;;;;;;;;;;;;;;;19.11;63.04;99933.25;5050863;28;1935;-34
2022/01/09 10:50:37;;;;;;;;;;;;;;;19.21;63.03;99918.75;5052908;28;1955;-35
2022/01/09 10:53:22;;;;;;;;;;;;;;;19.23;63.07;99915.91;5043115;28;1898;-34
2022/01/09 10:56:01;;;;;;;;;;;;;;;19.29;63.62;99928.69;5047235;28;1950;-35
2022/01/09 10:58:28;;;;;;;;;;;;;;;19.24;62.61;99937.22;5039725;28;1645;-34
2022/01/09 11:01:08;;;;;;;;;;;;;;;19.28;63.59;99932.38;5045512;28;1638;-34
2022/01/09 11:03:37;;;;;;;;;;;;;;;19.36;62.67;99919.03;5047891;28;1111;-34
2022/01/09 11:06:05;;;;;;;;;;;;;;;19.43;63.48;99921.91;5054575;28;1530;-34
2022/01/09 11:08:35;;;;;;;;;;;;;;;19.34;63.25;99913.00;5054669;28;1597;-34
2022/01/09 11:11:08;;;;;;;;;;;;;;;19.33;63.08;99922.00;5043596;28;1557;-34
2022/01/09 11:13:37;;;;;;;;;;;;;;;19.30;63.56;99911.63;5050542;28;1918;-34
2022/01/09 11:18:58;;;;;;;;;;;;;;;19.33;63.33;99895.19;5018158;28;1826;-34
2022/01/09 11:21:25;;;;;;;;;;;;;;;19.37;62.81;99895.72;5048604;28;1679;-33
2022/01/09 11:23:58;;;;;;;;;;;;;;;19.37;63.93;99891.19;5050453;28;1451;-34
2022/01/09 11:29:14;;;;;;;;;;;;;;;19.22;64.75;99904.38;5052381;28;2273;-34
2022/01/09 11:31:44;;;;;;;;;;;;;;;18.89;64.82;99897.94;5043660;28;1443;-33
2022/01/09 11:34:18;;;;;;;;;;;;;;;19.16;64.25;99888.06;5051309;28;1973;-33
2022/01/09 11:37:01;;;;;;;;;;;;;;;19.43;63.98;99879.84;5049307;28;1591;-34
2022/01/09 11:39:35;;;;;;;;;;;;;;;19.63;64.35;99861.66;5052521;28;1432;-34
2022/01/09 11:42:11;;;;;;;;;;;;;;;19.70;64.64;99864.56;5051672;28;1689;-34
2022/01/09 11:44:45;;;;;;;;;;;;;;;19.70;65.03;99879.81;5050345;28;1516;-34
2022/01/09 11:47:22;;;;;;;;;;;;;;;19.69;65.64;99862.84;5048015;28;1623;-34
2022/01/09 11:50:16;;;;;;;;;;;;;;;19.72;66.04;99877.84;5048310;28;1494;-34
2022/01/09 11:53:07;;;;;;;;;;;;;;;19.62;65.18;99857.31;5049265;28;1468;-34
2022/01/09 11:55:41;;;;;;;;;;;;;;;19.67;65.13;99864.88;5048913;28;1902;-34
2022/01/09 11:58:12;;;;;;;;;;;;;;;19.68;65.66;99864.72;5048561;28;1517;-34
2022/01/09 12:00:54;;;;;;;;;;;;;;;19.71;66.85;99870.75;5049943;28;1647;-34
2022/01/09 12:03:39;;;;;;;;;;;;;;;19.76;66.37;99857.75;5046742;28;1927;-34
2022/01/09 12:06:16;;;;;;;;;;;;;;;19.83;67.29;99859.56;5045554;28;1656;-34
2022/01/09 12:09:04;;;;;;;;;;;;;;;19.81;67.39;99866.13;5051937;28;1859;-35
2022/01/09 12:11:48;;;;;;;;;;;;;;;19.84;68.36;99865.81;5046856;28;1411;-34
2022/01/09 12:14:44;;;;;;;;;;;;;;;19.71;67.39;99860.03;5042233;28;1910;-34
2022/01/09 12:17:37;;;;;;;;;;;;;;;19.63;68.98;99856.28;5050357;28;2026;-34
2022/01/09 12:20:07;;;;;;;;;;;;;;;19.57;68.86;99862.31;5038518;28;1493;-34
2022/01/09 12:23:02;;;;;;;;;;;;;;;19.61;68.61;99865.50;5049237;28;1869;-34
2022/01/09 12:25:50;;;;;;;;;;;;;;;19.58;69.53;99852.44;5040903;28;1788;-34
2022/01/09 12:28:24;;;;;;;;;;;;;;;19.42;69.22;99846.00;5038629;28;1544;-35
2022/01/09 12:31:06;;;;;;;;;;;;;;;19.42;69.88;99839.81;5044923;28;1540;-35
2022/01/09 12:33:49;;;;;;;;;;;;;;;19.51;68.57;99848.72;5038572;28;1984;-35
2022/01/09 12:36:23;;;;;;;;;;;;;;;19.44;68.77;99830.59;5040462;28;1508;-35
2022/01/09 12:38:51;;;;;;;;;;;;;;;19.42;69.88;99846.00;5049000;28;1869;-34
2022/01/09 12:41:34;;;;;;;;;;;;;;;19.28;69.88;99841.25;5043987;28;1455;-35
2022/01/09 12:44:04;;;;;;;;;;;;;;;19.22;69.98;99833.84;5047590;28;1503;-34
2022/01/09 12:46:41;;;;;;;;;;;;;;;19.23;69.14;99827.47;5051314;28;1655;-34
2022/01/09 12:49:22;;;;;;;;;;;;;;;19.14;69.69;99837.31;5047527;28;1506;-35
2022/01/09 12:51:57;;;;;;;;;;;;;;;19.11;69.44;99839.47;5047979;28;1896;-34
2022/01/09 12:54:31;;;;;;;;;;;;;;;19.08;70.87;99846.00;5045072;28;1910;-35
2022/01/09 12:57:01;;;;;;;;;;;;;;;19.15;70.05;99843.50;5048200;28;1569;-34
2022/01/09 12:59:29;;;;;;;;;;;;;;;19.20;69.70;99842.03;5045852;28;1731;-35
2022/01/09 13:01:58;;;;;;;;;;;;;;;19.31;69.18;99830.19;5048638;28;1938;-34
2022/01/09 13:04:41;;;;;;;;;;;;;;;19.27;70.98;99834.19;5039318;28;1787;-36
2022/01/09 13:07:15;;;;;;;;;;;;;;;19.19;70.64;99852.91;5042601;28;1934;-35
2022/01/09 13:09:44;;;;;;;;;;;;;;;19.05;70.16;99838.25;5039412;28;1616;-35
2022/01/09 13:12:17;;;;;;;;;;;;;;;19.03;70.46;99841.09;5043343;28;1533;-35
2022/01/09 13:14:44;;;;;;;;;;;;;;;18.96;70.64;99858.81;5044469;28;1979;-35
2022/01/09 13:20:17;;;;;;;;;;;;;;;19.05;69.21;99838.25;5045568;28;2549;-35
2022/01/09 13:22:43;;;;;;;;;;;;;;;19.08;69.15;99846.00;5044971;28;1819;-35
2022/01/09 13:25:18;;;;;;;;;;;;;;;19.00;69.92;99843.25;5048125;28;1871;-35
2022/01/09 13:27:44;;;;;;;;;;;;;;;18.98;70.23;99853.28;5045827;28;1825;-35
2022/01/09 13:30:21;;;;;;;;;;;;;;;18.95;70.08;99833.00;5042144;28;1886;-35
2022/01/09 13:32:48;;;;;;;;;;;;;;;18.94;70.25;99847.41;5044882;28;1787;-35
2022/01/09 13:35:31;;;;;;;;;;;;;;;18.92;70.70;99843.19;5042273;28;1986;-36
2022/01/09 13:38:00;;;;;;;;;;;;;;;18.90;70.86;99843.38;5052748;28;1696;-35